Time;durP1;ratioP1;P1;durP2;ratioP2;P2;SDS_P1;SDS_P2;PMS_P1;PMS_P2;Temp;Humidity;BMP_temperature;BMP_pressure;BME280_temperature;BME280_humidity;BME280_pressure;Samples;Min_cycle;Max_cycle;Signal;HPM_P1;HPM_P2
2021/07/26 00:01:34;;;;;;;26.38;20.15;;;20.30;99.90;;;;;;5016075;28;20254;-66
2021/07/26 00:04:01;;;;;;;25.45;18.80;;;20.30;99.90;;;;;;5014455;28;20220;-66
2021/07/26 00:06:29;;;;;;;28.05;20.20;;;20.20;99.90;;;;;;5017097;28;20259;-64
2021/07/26 00:08:56;;;;;;;24.30;19.35;;;20.20;99.90;;;;;;5014569;28;20899;-65
2021/07/26 00:11:22;;;;;;;29.98;20.35;;;20.10;99.90;;;;;;5011474;28;20669;-65
2021/07/26 00:13:49;;;;;;;25.30;19.73;;;20.10;99.90;;;;;;5012860;28;20208;-64
2021/07/26 00:16:16;;;;;;;28.58;20.35;;;20.10;99.90;;;;;;5013092;28;20205;-65
2021/07/26 00:18:43;;;;;;;24.55;19.15;;;20.10;99.90;;;;;;5011938;28;20608;-66
2021/07/26 00:21:10;;;;;;;27.13;19.67;;;20.00;99.90;;;;;;5011255;28;20679;-64
2021/07/26 00:23:38;;;;;;;28.67;19.63;;;20.00;99.90;;;;;;5012258;28;20205;-64
2021/07/26 00:26:05;;;;;;;27.10;19.65;;;20.00;99.90;;;;;;5011138;28;20204;-65
2021/07/26 00:28:31;;;;;;;25.95;18.70;;;20.00;99.90;;;;;;5015871;28;20200;-66
2021/07/26 00:30:58;;;;;;;21.95;18.17;;;19.90;99.90;;;;;;5010371;28;20251;-65
2021/07/26 00:34:13;;;;;;;25.85;19.00;;;19.90;99.90;;;;;;5008490;28;20759;-63
2021/07/26 00:36:41;;;;;;;27.30;18.83;;;19.90;99.90;;;;;;5010894;28;20219;-64
2021/07/26 00:39:11;;;;;;;24.33;19.00;;;19.90;99.90;;;;;;5010875;28;20196;-66
2021/07/26 00:41:38;;;;;;;23.73;19.05;;;19.80;99.90;;;;;;5010600;28;20192;-66
2021/07/26 00:44:05;;;;;;;25.50;19.58;;;19.80;99.90;;;;;;5010815;28;20274;-65
2021/07/26 00:46:33;;;;;;;23.52;18.98;;;19.80;99.90;;;;;;5010373;28;20266;-64
2021/07/26 00:49:03;;;;;;;23.20;18.23;;;19.80;99.90;;;;;;5010249;28;20282;-66
2021/07/26 00:51:30;;;;;;;25.48;18.15;;;19.80;99.90;;;;;;5012440;28;20735;-65
2021/07/26 00:53:57;;;;;;;23.25;17.88;;;19.70;99.90;;;;;;5011119;28;20262;-64
2021/07/26 00:56:25;;;;;;;22.77;17.20;;;19.70;99.90;;;;;;5011727;28;20212;-66
2021/07/26 00:58:53;;;;;;;28.25;19.40;;;19.70;99.90;;;;;;5012549;28;20660;-66
2021/07/26 01:01:19;;;;;;;23.25;18.30;;;19.70;99.90;;;;;;5010487;28;20209;-64
2021/07/26 01:03:46;;;;;;;25.27;17.10;;;19.70;99.90;;;;;;5013155;28;20192;-65
2021/07/26 01:06:13;;;;;;;20.05;17.02;;;19.70;99.90;;;;;;5011316;28;20266;-64
2021/07/26 01:08:41;;;;;;;26.73;17.40;;;19.60;99.90;;;;;;5007884;28;22880;-64
2021/07/26 01:11:08;;;;;;;24.17;17.58;;;19.60;99.90;;;;;;5009984;28;20673;-65
2021/07/26 01:13:37;;;;;;;25.85;17.10;;;19.60;99.90;;;;;;5010373;28;20247;-64
2021/07/26 01:16:05;;;;;;;23.73;16.40;;;19.60;99.90;;;;;;5010129;28;20205;-66
2021/07/26 01:18:32;;;;;;;21.95;17.02;;;19.60;99.90;;;;;;5012090;28;20204;-66
2021/07/26 01:21:02;;;;;;;20.75;16.02;;;19.60;99.90;;;;;;5011629;28;20219;-66
2021/07/26 01:23:30;;;;;;;24.38;16.35;;;19.60;99.90;;;;;;5009599;28;20617;-67
2021/07/26 01:25:58;;;;;;;20.02;15.35;;;19.50;99.90;;;;;;5012213;28;20220;-67
2021/07/26 01:28:28;;;;;;;19.10;14.60;;;19.50;99.90;;;;;;5012426;28;20221;-66
2021/07/26 01:30:56;;;;;;;20.73;15.07;;;19.50;99.90;;;;;;5012109;28;20724;-67
2021/07/26 01:33:23;;;;;;;20.48;14.93;;;19.50;99.90;;;;;;5008305;28;20199;-64
2021/07/26 01:35:50;;;;;;;22.85;15.13;;;19.50;99.90;;;;;;5008351;28;20540;-66
2021/07/26 01:38:18;;;;;;;22.15;14.75;;;19.50;99.90;;;;;;5009142;28;20212;-66
2021/07/26 01:40:50;;;;;;;17.13;14.55;;;19.50;99.90;;;;;;5009906;28;20254;-64
2021/07/26 01:43:17;;;;;;;19.83;14.10;;;19.50;99.90;;;;;;5011104;28;20266;-64
2021/07/26 01:45:53;;;;;;;22.15;15.52;;;19.50;99.90;;;;;;5009368;28;20217;-65
2021/07/26 01:48:26;;;;;;;20.08;15.15;;;19.40;99.90;;;;;;5005302;28;20232;-64
2021/07/26 01:50:56;;;;;;;20.05;15.68;;;19.40;99.90;;;;;;5008961;28;20208;-65
2021/07/26 01:53:25;;;;;;;23.98;16.05;;;19.40;99.90;;;;;;5010698;28;20209;-66
2021/07/26 01:55:52;;;;;;;22.50;16.85;;;19.40;99.90;;;;;;5009199;28;20254;-66
2021/07/26 01:58:19;;;;;;;24.95;18.05;;;19.40;99.90;;;;;;5011752;28;20212;-63
2021/07/26 02:00:45;;;;;;;23.65;17.08;;;19.40;99.90;;;;;;5006676;28;20237;-65
2021/07/26 02:03:12;;;;;;;26.88;18.42;;;19.40;99.90;;;;;;5008093;28;20207;-64
2021/07/26 02:05:39;;;;;;;20.70;17.70;;;19.30;99.90;;;;;;5008353;28;20235;-66
2021/07/26 02:08:06;;;;;;;25.67;17.52;;;19.30;99.90;;;;;;4993266;28;20681;-65
2021/07/26 02:10:34;;;;;;;23.90;17.48;;;19.30;99.90;;;;;;5009955;28;20672;-65
2021/07/26 02:13:01;;;;;;;27.65;17.48;;;19.30;99.90;;;;;;5002555;28;20213;-67
2021/07/26 02:15:27;;;;;;;26.23;18.50;;;19.30;99.90;;;;;;5010576;28;20197;-66
2021/07/26 02:17:54;;;;;;;22.98;17.77;;;19.20;99.90;;;;;;5012461;28;20216;-67
2021/07/26 02:20:21;;;;;;;24.95;18.75;;;19.20;99.90;;;;;;5014584;28;20205;-65
2021/07/26 02:22:48;;;;;;;26.58;18.63;;;19.20;99.90;;;;;;4988510;28;20249;-65
2021/07/26 02:25:16;;;;;;;27.17;19.20;;;19.10;99.90;;;;;;5009779;28;20216;-65
2021/07/26 02:27:45;;;;;;;23.40;17.90;;;19.10;99.90;;;;;;5012193;28;20287;-65
2021/07/26 02:30:12;;;;;;;24.98;18.13;;;19.10;99.90;;;;;;5012114;28;20192;-64
2021/07/26 02:32:39;;;;;;;26.63;18.83;;;19.10;99.90;;;;;;5008524;28;20212;-66
2021/07/26 02:35:07;;;;;;;27.20;19.85;;;19.10;99.90;;;;;;5014081;28;20205;-67
2021/07/26 02:37:34;;;;;;;24.83;18.92;;;19.10;99.90;;;;;;5008642;28;20982;-66
2021/07/26 02:40:01;;;;;;;29.17;20.42;;;19.00;99.90;;;;;;5009529;28;20204;-65
2021/07/26 02:42:28;;;;;;;29.23;18.98;;;19.00;99.90;;;;;;5010359;28;20208;-65
2021/07/26 02:44:56;;;;;;;24.65;18.77;;;19.00;99.90;;;;;;5010995;28;20216;-65
2021/07/26 02:47:23;;;;;;;25.00;19.60;;;19.00;99.90;;;;;;5006450;28;20279;-65
2021/07/26 02:49:49;;;;;;;28.40;20.15;;;19.00;99.90;;;;;;5008461;28;20228;-65
2021/07/26 02:52:16;;;;;;;24.27;18.27;;;18.90;99.90;;;;;;5010671;28;20211;-66
2021/07/26 02:54:43;;;;;;;24.90;17.83;;;18.90;99.90;;;;;;5009573;28;20221;-66
2021/07/26 02:57:10;;;;;;;20.15;15.85;;;18.90;99.90;;;;;;5011853;28;20258;-65
2021/07/26 02:59:37;;;;;;;30.55;16.95;;;18.90;99.90;;;;;;5006761;28;20209;-67
2021/07/26 03:02:05;;;;;;;21.85;17.02;;;18.90;99.90;;;;;;5009459;28;20216;-66
2021/07/26 03:04:32;;;;;;;24.73;16.98;;;18.90;99.90;;;;;;5007243;28;20201;-67
2021/07/26 03:06:59;;;;;;;26.27;18.10;;;18.90;99.90;;;;;;5008178;28;20668;-65
2021/07/26 03:09:26;;;;;;;25.52;18.77;;;18.90;99.90;;;;;;5008287;28;20211;-65
2021/07/26 03:11:52;;;;;;;23.95;18.23;;;18.90;99.90;;;;;;5009159;28;20677;-67
2021/07/26 03:14:19;;;;;;;24.10;18.65;;;18.90;99.90;;;;;;5007138;28;20660;-66
2021/07/26 03:16:46;;;;;;;23.83;17.35;;;18.90;99.90;;;;;;5006999;28;20205;-66
2021/07/26 03:19:14;;;;;;;25.77;17.70;;;18.90;99.90;;;;;;5007298;28;20262;-67
2021/07/26 03:21:41;;;;;;;22.33;17.58;;;18.90;99.90;;;;;;5007293;28;20204;-67
2021/07/26 03:24:08;;;;;;;22.98;16.95;;;18.90;99.90;;;;;;4993499;28;20208;-67
2021/07/26 03:26:34;;;;;;;27.10;18.30;;;18.90;99.90;;;;;;5012126;28;20215;-67
2021/07/26 03:29:01;;;;;;;20.52;16.83;;;18.90;99.90;;;;;;5009149;28;20247;-67
2021/07/26 03:31:28;;;;;;;24.15;18.35;;;18.90;99.90;;;;;;5010579;28;20259;-65
2021/07/26 03:33:55;;;;;;;28.40;18.63;;;18.90;99.90;;;;;;5012816;28;20204;-66
2021/07/26 03:36:23;;;;;;;21.27;17.38;;;18.80;99.90;;;;;;5008739;28;20274;-65
2021/07/26 03:38:50;;;;;;;22.73;17.38;;;18.90;99.90;;;;;;5012041;28;20207;-67
2021/07/26 03:41:20;;;;;;;21.50;17.52;;;18.90;99.90;;;;;;5010244;28;20262;-65
2021/07/26 03:43:47;;;;;;;24.73;17.92;;;18.90;99.90;;;;;;5014061;28;20199;-63
2021/07/26 03:46:13;;;;;;;24.27;17.35;;;18.90;99.90;;;;;;5010564;28;20201;-67
2021/07/26 03:48:40;;;;;;;26.73;20.13;;;18.90;99.90;;;;;;5007388;28;20240;-67
2021/07/26 03:51:07;;;;;;;29.45;18.30;;;18.90;99.90;;;;;;5006518;28;20203;-66
2021/07/26 03:53:35;;;;;;;21.42;17.25;;;18.90;99.90;;;;;;5009458;28;20212;-65
2021/07/26 03:56:02;;;;;;;26.85;17.55;;;18.90;99.90;;;;;;5008256;28;20220;-65
2021/07/26 03:58:29;;;;;;;24.38;17.58;;;18.90;99.90;;;;;;5006372;28;20196;-65
2021/07/26 04:00:55;;;;;;;22.88;18.23;;;18.90;99.90;;;;;;5007979;28;20209;-65
2021/07/26 04:03:25;;;;;;;23.30;17.65;;;18.90;99.90;;;;;;5006649;28;20664;-68
2021/07/26 04:05:58;;;;;;;22.10;17.70;;;18.90;99.90;;;;;;5009000;28;20208;-66
2021/07/26 04:08:27;;;;;;;22.67;17.00;;;18.90;99.90;;;;;;5008945;28;20283;-67
2021/07/26 04:11:03;;;;;;;20.08;16.60;;;18.90;99.90;;;;;;5011043;28;21361;-67
2021/07/26 04:13:32;;;;;;;23.05;17.50;;;18.90;99.90;;;;;;5007083;28;20212;-65
2021/07/26 04:15:59;;;;;;;35.25;18.30;;;18.90;99.90;;;;;;5006946;28;20224;-64
2021/07/26 04:18:26;;;;;;;22.13;16.25;;;18.90;99.90;;;;;;5007120;28;20216;-67
2021/07/26 04:20:53;;;;;;;24.23;17.00;;;18.90;99.90;;;;;;5008368;28;20200;-66
2021/07/26 04:23:20;;;;;;;24.50;18.27;;;18.90;99.90;;;;;;5006424;28;20205;-66
2021/07/26 04:25:48;;;;;;;26.73;19.33;;;19.00;99.90;;;;;;5007205;28;20204;-64
2021/07/26 04:28:16;;;;;;;20.85;16.08;;;19.00;99.90;;;;;;5008127;28;20232;-67
2021/07/26 04:30:43;;;;;;;24.80;16.85;;;19.00;99.90;;;;;;5010327;28;20255;-67
2021/07/26 04:33:11;;;;;;;24.00;16.35;;;19.00;99.90;;;;;;5008712;28;20212;-66
2021/07/26 04:35:38;;;;;;;22.60;16.48;;;19.00;99.90;;;;;;5002093;28;20283;-64
2021/07/26 04:38:04;;;;;;;21.80;15.32;;;19.00;99.90;;;;;;5006641;28;20220;-65
2021/07/26 04:40:31;;;;;;;22.50;16.27;;;19.10;99.90;;;;;;5005606;28;20201;-64
2021/07/26 04:42:58;;;;;;;20.50;15.55;;;19.10;99.90;;;;;;5012760;28;20837;-66
2021/07/26 04:45:26;;;;;;;19.83;15.07;;;19.10;99.90;;;;;;5010599;28;20201;-65
2021/07/26 04:47:53;;;;;;;20.50;15.35;;;19.10;99.90;;;;;;5010910;28;20212;-65
2021/07/26 04:50:20;;;;;;;19.52;15.55;;;19.10;99.90;;;;;;5011464;28;20204;-65
2021/07/26 04:52:47;;;;;;;22.17;15.68;;;19.10;99.90;;;;;;5009962;28;20211;-66
2021/07/26 04:55:14;;;;;;;20.95;15.95;;;19.10;99.90;;;;;;5012151;28;20212;-66
2021/07/26 04:57:41;;;;;;;21.92;15.68;;;19.10;99.90;;;;;;5011549;28;20603;-63
2021/07/26 05:00:09;;;;;;;20.30;15.82;;;19.10;99.90;;;;;;5009910;28;20266;-65
2021/07/26 05:02:39;;;;;;;31.98;21.85;;;19.20;99.90;;;;;;5007514;28;20205;-64
2021/07/26 05:05:07;;;;;;;22.05;17.48;;;19.20;99.90;;;;;;5002230;28;20208;-66
2021/07/26 05:07:34;;;;;;;20.50;15.63;;;19.20;99.90;;;;;;4988424;28;20208;-65
2021/07/26 05:10:01;;;;;;;21.63;15.95;;;19.20;99.90;;;;;;5011357;28;20208;-63
2021/07/26 05:12:28;;;;;;;20.90;15.60;;;19.30;99.90;;;;;;5011607;28;20209;-63
2021/07/26 05:14:55;;;;;;;21.23;16.02;;;19.30;99.90;;;;;;5006677;28;20621;-63
2021/07/26 05:17:26;;;;;;;24.60;16.10;;;19.30;99.90;;;;;;5010655;28;20270;-64
2021/07/26 05:19:55;;;;;;;21.38;16.67;;;19.40;99.90;;;;;;5012285;28;20661;-64
2021/07/26 05:22:22;;;;;;;20.65;15.52;;;19.40;99.90;;;;;;5013852;28;20625;-64
2021/07/26 05:24:48;;;;;;;21.83;16.00;;;19.40;99.90;;;;;;5012075;28;20200;-64
2021/07/26 05:27:15;;;;;;;25.88;18.95;;;19.40;99.90;;;;;;5009690;28;20558;-64
2021/07/26 05:29:42;;;;;;;23.52;16.05;;;19.40;99.90;;;;;;5011746;28;20619;-63
2021/07/26 05:32:10;;;;;;;22.38;16.20;;;19.40;99.90;;;;;;5011114;28;20209;-63
2021/07/26 05:34:37;;;;;;;20.48;16.55;;;19.50;99.90;;;;;;5009899;28;20204;-63
2021/07/26 05:37:06;;;;;;;21.15;17.15;;;19.50;99.90;;;;;;5007609;28;20286;-64
2021/07/26 05:39:32;;;;;;;23.35;16.20;;;19.50;99.90;;;;;;5010843;28;20263;-64
2021/07/26 05:42:00;;;;;;;22.05;16.60;;;19.50;99.90;;;;;;5010266;28;20661;-64
2021/07/26 05:44:28;;;;;;;23.67;16.25;;;19.50;99.90;;;;;;5007634;28;20204;-65
2021/07/26 05:46:55;;;;;;;23.17;16.85;;;19.50;99.90;;;;;;5011179;28;20649;-66
2021/07/26 05:49:21;;;;;;;22.70;16.17;;;19.60;99.90;;;;;;5008074;28;20309;-66
2021/07/26 05:51:48;;;;;;;20.50;16.77;;;19.60;99.90;;;;;;5010278;28;20200;-64
2021/07/26 05:54:16;;;;;;;22.33;16.92;;;19.60;99.90;;;;;;5011302;28;20611;-65
2021/07/26 05:56:45;;;;;;;22.38;16.85;;;19.60;99.90;;;;;;5005630;28;20224;-65
2021/07/26 05:59:12;;;;;;;23.60;17.60;;;19.60;99.90;;;;;;5005666;28;20231;-64
2021/07/26 06:01:47;;;;;;;23.30;17.33;;;19.60;99.90;;;;;;5003941;28;20217;-63
2021/07/26 06:04:16;;;;;;;23.58;17.52;;;19.60;99.90;;;;;;5002024;28;20287;-63
2021/07/26 06:06:43;;;;;;;27.85;18.52;;;19.60;99.90;;;;;;5005420;28;20230;-63
2021/07/26 06:09:10;;;;;;;23.83;18.92;;;19.60;99.90;;;;;;5007400;28;20288;-63
2021/07/26 06:11:39;;;;;;;26.88;19.25;;;19.60;99.90;;;;;;5005540;28;21069;-63
2021/07/26 06:14:06;;;;;;;22.88;18.90;;;19.60;99.90;;;;;;5007543;28;20250;-64
2021/07/26 06:16:33;;;;;;;29.38;20.35;;;19.60;99.90;;;;;;5009363;28;20224;-63
2021/07/26 06:19:07;;;;;;;25.02;19.88;;;19.60;99.90;;;;;;5006604;28;20267;-62
2021/07/26 06:21:34;;;;;;;24.48;19.27;;;19.60;99.90;;;;;;5008923;28;20786;-63
2021/07/26 06:24:01;;;;;;;28.42;20.02;;;19.60;99.90;;;;;;5009299;28;20201;-63
2021/07/26 06:26:27;;;;;;;26.85;17.70;;;19.60;99.90;;;;;;5010494;28;20196;-63
2021/07/26 06:28:55;;;;;;;26.85;20.40;;;19.60;99.90;;;;;;5008937;28;20196;-63
2021/07/26 06:31:22;;;;;;;28.98;20.60;;;19.70;99.90;;;;;;5011312;28;20263;-64
2021/07/26 06:33:49;;;;;;;27.50;21.05;;;19.70;99.90;;;;;;5013291;28;20239;-66
2021/07/26 06:36:16;;;;;;;27.80;20.80;;;19.70;99.90;;;;;;5010744;28;20676;-65
2021/07/26 06:38:42;;;;;;;26.35;19.77;;;19.80;99.90;;;;;;5011651;28;21274;-65
2021/07/26 06:41:09;;;;;;;30.40;21.83;;;19.80;99.90;;;;;;5012519;28;20692;-64
2021/07/26 06:43:36;;;;;;;29.30;22.00;;;19.90;99.90;;;;;;5012315;28;20593;-63
2021/07/26 06:46:06;;;;;;;30.45;20.52;;;19.90;99.90;;;;;;5007725;28;20197;-64
2021/07/26 06:48:33;;;;;;;30.95;21.83;;;20.00;99.90;;;;;;5008464;28;20242;-65
2021/07/26 06:51:00;;;;;;;25.13;20.08;;;20.10;99.90;;;;;;5007956;28;20208;-62
2021/07/26 06:53:28;;;;;;;27.45;20.10;;;20.10;99.90;;;;;;4999368;28;20213;-64
2021/07/26 06:55:54;;;;;;;27.23;20.67;;;20.20;99.90;;;;;;5009742;28;20232;-62
2021/07/26 06:58:21;;;;;;;24.83;17.55;;;20.30;99.90;;;;;;5009455;28;20208;-63
2021/07/26 07:00:48;;;;;;;23.33;18.33;;;20.30;99.90;;;;;;5006135;28;20562;-65
2021/07/26 07:03:16;;;;;;;22.85;18.80;;;20.40;99.90;;;;;;5003846;28;20266;-64
2021/07/26 07:05:43;;;;;;;28.13;19.52;;;20.40;99.90;;;;;;5000297;28;20213;-64
2021/07/26 07:08:10;;;;;;;28.98;19.58;;;20.40;99.90;;;;;;5013115;28;20208;-64
2021/07/26 07:10:36;;;;;;;25.40;18.17;;;20.50;99.90;;;;;;5010641;28;20255;-63
2021/07/26 07:13:03;;;;;;;22.73;18.58;;;20.50;99.90;;;;;;5005845;28;20612;-64
2021/07/26 07:15:30;;;;;;;30.95;22.30;;;20.50;99.90;;;;;;5007848;28;20691;-62
2021/07/26 07:17:57;;;;;;;20.35;17.02;;;20.60;99.90;;;;;;5009725;28;20211;-64
2021/07/26 07:20:25;;;;;;;26.27;18.70;;;20.60;99.90;;;;;;5007581;28;20239;-62
2021/07/26 07:22:52;;;;;;;25.10;18.80;;;20.60;99.90;;;;;;5012565;28;20204;-65
2021/07/26 07:25:19;;;;;;;24.52;17.67;;;20.60;99.90;;;;;;5010078;28;20291;-64
2021/07/26 07:27:46;;;;;;;26.05;19.98;;;20.70;99.90;;;;;;5006374;28;20657;-64
2021/07/26 07:30:15;;;;;;;25.02;20.50;;;20.70;99.90;;;;;;5006667;28;20561;-65
2021/07/26 07:32:42;;;;;;;22.67;17.67;;;20.80;99.90;;;;;;5005270;28;20211;-62
2021/07/26 07:35:10;;;;;;;27.88;21.05;;;20.80;99.90;;;;;;5012487;28;20561;-64
2021/07/26 07:37:39;;;;;;;23.05;17.23;;;20.80;99.90;;;;;;5010048;28;20219;-63
2021/07/26 07:40:09;;;;;;;24.60;18.60;;;20.90;99.90;;;;;;5005889;28;20208;-63
2021/07/26 07:42:36;;;;;;;25.05;19.90;;;20.90;99.90;;;;;;5001513;28;20218;-66
2021/07/26 07:45:03;;;;;;;26.42;19.42;;;21.00;99.90;;;;;;5009036;28;20204;-65
2021/07/26 07:47:31;;;;;;;25.92;19.85;;;21.10;99.90;;;;;;5009520;28;20200;-67
2021/07/26 07:49:58;;;;;;;29.33;21.73;;;21.20;99.90;;;;;;5009623;28;20232;-69
2021/07/26 07:52:25;;;;;;;24.42;21.00;;;21.20;99.90;;;;;;5007182;28;20211;-69
2021/07/26 07:54:53;;;;;;;27.75;21.08;;;21.30;99.90;;;;;;5006575;28;20208;-69
2021/07/26 07:57:21;;;;;;;25.63;20.45;;;21.40;99.90;;;;;;5004094;28;20216;-66
2021/07/26 07:59:48;;;;;;;24.83;20.58;;;21.50;99.90;;;;;;5010899;28;20223;-66
2021/07/26 08:02:15;;;;;;;25.50;21.58;;;21.70;99.90;;;;;;5006849;28;20288;-66
2021/07/26 08:04:42;;;;;;;26.05;21.13;;;21.80;99.90;;;;;;5005980;28;20215;-65
2021/07/26 08:07:09;;;;;;;27.48;21.45;;;22.00;99.90;;;;;;5009867;28;20991;-68
2021/07/26 08:09:36;;;;;;;26.80;21.05;;;22.10;99.90;;;;;;5008185;28;20259;-68
2021/07/26 08:12:04;;;;;;;28.02;21.42;;;22.20;99.90;;;;;;5007492;28;20204;-68
2021/07/26 08:14:31;;;;;;;25.85;21.48;;;22.40;99.90;;;;;;5012738;28;20207;-66
2021/07/26 08:17:01;;;;;;;25.00;22.25;;;22.50;99.90;;;;;;5012124;28;20220;-65
2021/07/26 08:19:28;;;;;;;26.95;21.65;;;22.70;99.90;;;;;;5013675;28;20200;-66
2021/07/26 08:21:55;;;;;;;26.77;21.17;;;22.90;99.90;;;;;;5011975;28;20201;-68
2021/07/26 08:24:22;;;;;;;24.67;22.02;;;23.00;99.90;;;;;;5011571;28;20232;-65
2021/07/26 08:26:49;;;;;;;28.17;21.63;;;23.20;99.90;;;;;;5012784;28;20259;-66
2021/07/26 08:29:18;;;;;;;28.02;20.58;;;23.40;99.90;;;;;;5013802;28;20262;-66
2021/07/26 08:31:44;;;;;;;25.65;19.48;;;23.70;99.90;;;;;;5009073;28;20216;-68
2021/07/26 08:34:11;;;;;;;20.30;17.77;;;23.90;99.90;;;;;;5010468;28;20208;-65
2021/07/26 08:36:38;;;;;;;21.70;18.05;;;24.10;99.90;;;;;;5011598;28;20688;-68
2021/07/26 08:39:05;;;;;;;20.23;16.98;;;24.30;99.90;;;;;;5011783;28;20207;-67
2021/07/26 08:41:32;;;;;;;20.23;18.08;;;24.40;99.90;;;;;;5011530;28;20905;-66
2021/07/26 08:43:58;;;;;;;20.77;18.58;;;24.50;99.40;;;;;;5012362;28;20204;-67
2021/07/26 08:46:28;;;;;;;20.48;18.27;;;24.50;98.60;;;;;;5011287;28;20208;-63
2021/07/26 08:48:55;;;;;;;19.02;16.55;;;24.40;98.10;;;;;;5008129;28;20229;-67
2021/07/26 08:51:24;;;;;;;19.73;16.25;;;24.60;98.10;;;;;;4993740;28;20200;-68
2021/07/26 08:53:52;;;;;;;16.95;14.50;;;25.00;97.60;;;;;;5011659;28;20258;-68
2021/07/26 08:56:19;;;;;;;25.20;18.27;;;25.40;96.60;;;;;;5002369;28;20227;-68
2021/07/26 08:58:47;;;;;;;18.65;16.30;;;25.70;95.70;;;;;;5004405;28;21404;-71
2021/07/26 09:01:15;;;;;;;24.33;17.33;;;25.80;95.20;;;;;;5008767;28;20618;-71
2021/07/26 09:03:44;;;;;;;18.08;15.75;;;25.90;94.90;;;;;;5007640;28;20618;-65
2021/07/26 09:06:11;;;;;;;21.65;18.70;;;25.90;94.90;;;;;;5008061;28;20288;-69
2021/07/26 09:08:40;;;;;;;17.85;15.95;;;25.90;94.60;;;;;;5011488;28;20262;-67
2021/07/26 09:11:07;;;;;;;18.95;16.75;;;25.90;94.00;;;;;;5006764;28;20205;-67
2021/07/26 09:13:35;;;;;;;21.08;18.77;;;25.80;93.80;;;;;;5005850;28;20676;-67
2021/07/26 09:16:16;;;;;;;19.65;17.05;;;25.70;93.50;;;;;;5008367;28;20208;-64
2021/07/26 09:18:45;;;;;;;22.90;19.83;;;25.50;93.20;;;;;;5006650;28;20207;-67
2021/07/26 09:21:12;;;;;;;21.70;17.08;;;25.40;93.20;;;;;;5011228;28;20266;-65
2021/07/26 09:24:02;;;;;;;17.10;15.30;;;25.30;93.10;;;;;;5008680;28;20723;-68
2021/07/26 09:26:29;;;;;;;17.98;16.08;;;25.20;93.10;;;;;;5002480;28;20208;-69
2021/07/26 09:28:56;;;;;;;19.02;16.92;;;25.10;93.10;;;;;;4990888;28;20216;-64
2021/07/26 09:31:23;;;;;;;20.08;16.70;;;25.10;93.10;;;;;;5007534;28;20263;-68
2021/07/26 09:33:52;;;;;;;19.20;16.83;;;25.00;93.10;;;;;;5004222;28;20243;-67
2021/07/26 09:36:20;;;;;;;17.30;15.23;;;24.90;93.10;;;;;;4989019;28;20262;-70
2021/07/26 09:38:56;;;;;;;17.83;14.40;;;24.80;93.10;;;;;;5013641;28;20250;-67
2021/07/26 09:41:42;;;;;;;21.63;17.20;;;24.70;93.30;;;;;;5012285;28;20207;-68
2021/07/26 09:44:09;;;;;;;24.90;21.35;;;24.60;93.50;;;;;;5015264;28;20223;-67
2021/07/26 09:46:38;;;;;;;32.55;26.50;;;24.50;94.10;;;;;;5013518;28;20604;-68
2021/07/26 09:49:11;;;;;;;29.13;26.00;;;24.50;94.60;;;;;;5014942;28;20239;-71
2021/07/26 09:51:38;;;;;;;39.13;24.38;;;24.40;94.90;;;;;;5008248;28;20740;-71
2021/07/26 09:54:05;;;;;;;23.50;18.38;;;24.50;95.20;;;;;;5010252;28;20216;-65
2021/07/26 09:56:33;;;;;;;26.67;21.00;;;24.50;95.30;;;;;;5012295;28;20205;-66
2021/07/26 09:59:01;;;;;;;24.63;17.92;;;24.70;95.10;;;;;;5004047;28;20275;-68
2021/07/26 10:01:28;;;;;;;18.42;13.50;;;24.80;94.90;;;;;;5009557;28;20290;-65
2021/07/26 10:03:55;;;;;;;14.55;11.25;;;25.00;94.80;;;;;;5008123;28;20274;-67
2021/07/26 10:06:26;;;;;;;15.27;11.70;;;25.20;94.10;;;;;;5011120;28;20200;-65
2021/07/26 10:08:55;;;;;;;15.38;11.73;;;25.30;93.40;;;;;;5011734;28;20250;-65
2021/07/26 10:11:22;;;;;;;14.48;12.98;;;25.30;93.00;;;;;;5011043;28;20243;-66
2021/07/26 10:13:49;;;;;;;15.60;11.75;;;25.20;92.80;;;;;;5011667;28;20993;-67
2021/07/26 10:16:17;;;;;;;12.60;10.30;;;25.10;92.70;;;;;;5009429;28;20255;-66
2021/07/26 10:18:47;;;;;;;13.30;10.05;;;25.00;92.60;;;;;;5008376;28;20275;-67
2021/07/26 10:21:17;;;;;;;15.80;10.32;;;24.90;92.70;;;;;;4987546;28;20279;-67
2021/07/26 10:23:53;;;;;;;10.65;9.55;;;24.90;92.80;;;;;;5006783;28;20267;-67
2021/07/26 10:26:24;;;;;;;10.13;9.10;;;25.00;92.90;;;;;;5007213;28;20216;-67
2021/07/26 10:28:54;;;;;;;10.73;8.85;;;25.30;92.60;;;;;;5007730;28;20205;-69
2021/07/26 10:31:37;;;;;;;13.48;9.13;;;25.40;92.20;;;;;;5010175;28;20209;-68
2021/07/26 10:34:07;;;;;;;13.00;9.82;;;25.40;91.80;;;;;;5007984;28;20211;-66
2021/07/26 10:36:57;;;;;;;12.43;9.65;;;25.40;91.80;;;;;;5002874;28;20298;-67
2021/07/26 10:39:28;;;;;;;11.48;9.23;;;25.80;91.80;;;;;;5009125;28;20211;-68
2021/07/26 10:42:02;;;;;;;13.00;10.25;;;26.10;91.00;;;;;;5011161;28;20219;-66
2021/07/26 10:44:48;;;;;;;9.77;8.70;;;26.20;90.20;;;;;;5008290;28;20711;-66
2021/07/26 10:47:17;;;;;;;14.18;10.52;;;26.10;89.90;;;;;;5010425;28;20728;-64
2021/07/26 10:50:12;;;;;;;12.70;10.55;;;26.00;89.50;;;;;;5008612;28;20319;-66
2021/07/26 10:52:46;;;;;;;11.77;10.50;;;26.10;89.30;;;;;;5002630;28;20213;-69
2021/07/26 10:55:56;;;;;;;11.30;8.98;;;26.20;88.60;;;;;;5009103;28;20266;-68
2021/07/26 10:59:05;;;;;;;17.45;10.27;;;26.40;87.70;;;;;;5010769;28;20287;-66
2021/07/26 11:01:40;;;;;;;15.25;9.57;;;26.90;87.90;;;;;;5007197;28;20204;-66
2021/07/26 11:04:34;;;;;;;13.85;9.30;;;27.70;87.00;;;;;;5008871;28;20199;-67
2021/07/26 11:07:03;;;;;;;16.67;12.95;;;28.70;85.10;;;;;;5010049;28;20261;-66
2021/07/26 11:09:44;;;;;;;16.83;10.98;;;29.40;81.60;;;;;;5008672;28;20248;-68
2021/07/26 11:12:11;;;;;;;17.15;10.55;;;29.70;78.60;;;;;;5007396;28;20226;-69
2021/07/26 11:14:37;;;;;;;24.92;14.05;;;30.00;78.00;;;;;;5008167;28;20695;-67
2021/07/26 11:17:08;;;;;;;23.40;11.93;;;30.20;77.10;;;;;;5008809;28;20196;-67
2021/07/26 11:19:54;;;;;;;22.70;12.98;;;30.50;76.60;;;;;;5007607;28;20234;-67
2021/07/26 11:22:58;;;;;;;24.08;13.52;;;30.90;75.20;;;;;;5005896;28;20564;-69
2021/07/26 11:25:25;;;;;;;20.98;13.80;;;31.10;73.40;;;;;;5006970;28;20254;-69
2021/07/26 11:27:54;;;;;;;18.75;13.25;;;30.90;73.00;;;;;;5009693;28;20625;-69
2021/07/26 11:30:24;;;;;;;19.08;11.95;;;30.80;72.30;;;;;;5009838;28;20200;-68
2021/07/26 11:32:54;;;;;;;18.30;13.93;;;30.90;72.40;;;;;;5010465;28;20707;-67
2021/07/26 11:35:30;;;;;;;19.00;14.00;;;31.20;69.40;;;;;;5009542;28;20258;-67
2021/07/26 11:38:05;;;;;;;21.80;15.82;;;31.30;66.70;;;;;;5005950;28;20665;-64
2021/07/26 11:40:32;;;;;;;20.40;16.17;;;30.80;65.20;;;;;;5012127;28;20729;-66
2021/07/26 11:42:59;;;;;;;21.40;17.23;;;30.30;66.40;;;;;;5009276;28;20303;-66
2021/07/26 11:45:26;;;;;;;25.48;18.63;;;29.70;69.20;;;;;;5012530;28;20204;-64
2021/07/26 11:47:56;;;;;;;26.38;19.63;;;29.00;72.20;;;;;;5014654;28;20210;-65
2021/07/26 11:50:36;;;;;;;25.17;18.73;;;28.60;74.50;;;;;;5013578;28;20204;-68
2021/07/26 11:53:03;;;;;;;19.52;16.55;;;28.50;76.20;;;;;;5012634;28;20199;-67
2021/07/26 11:55:31;;;;;;;21.13;16.67;;;28.70;76.30;;;;;;5013342;28;20207;-68
2021/07/26 11:57:58;;;;;;;20.88;16.48;;;29.00;75.40;;;;;;5015587;28;20207;-67
2021/07/26 12:00:27;;;;;;;19.23;16.10;;;29.30;74.20;;;;;;5015870;28;20204;-66
2021/07/26 12:02:56;;;;;;;20.48;16.25;;;29.60;73.00;;;;;;5014738;28;20261;-66
2021/07/26 12:05:29;;;;;;;20.65;17.33;;;30.00;71.60;;;;;;5011511;28;20257;-65
2021/07/26 12:07:56;;;;;;;15.10;13.50;;;30.40;70.00;;;;;;5014723;28;20199;-65
2021/07/26 12:10:33;;;;;;;19.73;14.63;;;30.70;68.20;;;;;;5015827;28;20208;-66
2021/07/26 12:13:07;;;;;;;21.98;16.73;;;30.60;66.80;;;;;;5013926;28;20195;-67
2021/07/26 12:15:35;;;;;;;16.33;13.10;;;30.30;67.30;;;;;;5014162;28;20213;-68
2021/07/26 12:18:04;;;;;;;21.10;17.30;;;30.00;67.40;;;;;;5008439;28;20674;-67
2021/07/26 12:20:32;;;;;;;21.58;17.45;;;29.50;68.70;;;;;;5011817;28;20613;-66
2021/07/26 12:23:10;;;;;;;23.27;20.17;;;29.20;70.50;;;;;;5012312;28;20694;-68
2021/07/26 12:25:43;;;;;;;23.65;19.40;;;28.90;72.10;;;;;;5012368;28;20731;-68
2021/07/26 12:28:10;;;;;;;26.75;21.45;;;28.60;73.30;;;;;;5014255;28;20196;-69
2021/07/26 12:30:38;;;;;;;26.35;21.05;;;28.40;74.40;;;;;;5003081;28;20213;-67
2021/07/26 12:33:07;;;;;;;25.42;19.75;;;28.20;75.30;;;;;;5014198;28;20286;-67
2021/07/26 12:35:35;;;;;;;28.05;22.42;;;28.10;76.00;;;;;;5014013;28;20609;-67
2021/07/26 12:38:17;;;;;;;32.17;22.90;;;27.90;76.90;;;;;;5013876;28;20219;-67